createdAt,value
2019-05-13T00:03:44.231Z,6.53
2019-05-13T00:06:15.656Z,6.40
2019-05-13T00:08:50.293Z,5.43
2019-05-13T00:11:51.165Z,7.40
2019-05-13T00:25:55.689Z,4.00
2019-05-13T00:28:31.304Z,4.47
2019-05-13T00:35:14.228Z,4.63
2019-05-13T00:38:03.762Z,6.23
2019-05-13T01:21:04.210Z,3.27
2019-05-13T01:37:42.368Z,5.70
2019-05-13T01:40:18.198Z,4.17
2019-05-13T02:26:37.364Z,4.70
2019-05-13T02:29:09.017Z,3.60
2019-05-13T02:35:54.264Z,4.60
2019-05-13T03:12:03.545Z,3.20
2019-05-13T03:14:35.063Z,4.80
2019-05-13T03:17:17.840Z,4.53
2019-05-13T03:30:46.743Z,5.03
2019-05-13T03:33:46.366Z,5.33
2019-05-13T03:36:16.711Z,4.30
2019-05-13T03:39:01.530Z,3.97
2019-05-13T03:41:22.813Z,5.40
2019-05-13T03:43:57.837Z,5.13
2019-05-13T03:46:33.321Z,4.23
2019-05-13T03:49:04.654Z,7.27
2019-05-13T03:51:42.805Z,9.00
2019-05-13T03:54:12.918Z,7.53
2019-05-13T03:56:44.457Z,7.60
2019-05-13T03:59:22.268Z,7.43
2019-05-13T04:01:57.799Z,7.37
2019-05-13T04:04:36.864Z,7.53
2019-05-13T04:07:08.592Z,7.73
2019-05-13T04:09:45.381Z,6.97
2019-05-13T04:12:22.747Z,13.57
2019-05-13T04:14:57.399Z,14.20
2019-05-13T04:17:32.196Z,22.03
2019-05-13T04:43:34.706Z,5.13
2019-05-13T04:49:56.067Z,6.53
2019-05-13T04:52:42.385Z,7.10
2019-05-13T04:55:13.132Z,2.93
2019-05-13T04:57:45.545Z,4.07
2019-05-13T05:00:42.610Z,2.20
2019-05-13T05:03:32.962Z,1.50
2019-05-13T05:06:14.388Z,1.70
2019-05-13T05:08:55.763Z,3.40
2019-05-13T05:11:32.270Z,2.00
2019-05-13T05:14:25.672Z,3.87
2019-05-13T05:17:05.540Z,2.93
2019-05-13T05:20:04.836Z,1.67
2019-05-13T05:22:42.025Z,2.63
2019-05-13T05:25:43.958Z,3.40
2019-05-13T05:28:51.779Z,2.93
2019-05-13T05:31:41.458Z,3.20
2019-05-13T05:34:34.720Z,2.47
2019-05-13T05:39:58.429Z,2.37
2019-05-13T05:42:32.642Z,3.00
2019-05-13T05:45:05.540Z,2.90
2019-05-13T05:47:42.000Z,2.67
2019-05-13T05:50:13.549Z,1.82
2019-05-13T05:52:51.328Z,6.72
2019-05-13T05:55:24.772Z,3.98
2019-05-13T05:57:57.854Z,2.12
2019-05-13T06:00:32.440Z,3.47
2019-05-13T06:03:05.557Z,4.05
2019-05-13T06:05:38.566Z,7.55
2019-05-13T06:08:13.848Z,4.00
2019-05-13T06:10:51.342Z,4.85
2019-05-13T06:13:27.275Z,2.40
2019-05-13T06:16:01.908Z,2.45
2019-05-13T06:18:34.694Z,2.83
2019-05-13T06:21:05.811Z,1.60
2019-05-13T06:23:37.930Z,2.30
2019-05-13T06:26:23.355Z,1.90
2019-05-13T06:28:52.038Z,1.57
2019-05-13T06:31:24.356Z,6.42
2019-05-13T06:34:02.363Z,2.45
2019-05-13T06:36:31.615Z,1.65
2019-05-13T06:39:03.571Z,4.22
2019-05-13T06:41:34.659Z,1.50
2019-05-13T06:44:06.762Z,1.80
2019-05-13T07:15:56.524Z,3.33
2019-05-13T07:33:52.708Z,2.50
2019-05-13T07:36:24.056Z,4.42
2019-05-13T07:42:55.451Z,1.60
2019-05-13T07:49:24.083Z,2.25
2019-05-13T07:55:54.584Z,1.52
2019-05-13T07:58:26.492Z,2.37
2019-05-13T08:00:57.530Z,2.25
2019-05-13T08:03:28.605Z,1.72
2019-05-13T08:06:01.930Z,1.80
2019-05-13T08:08:33.230Z,4.00
2019-05-13T08:11:05.409Z,3.50
2019-05-13T08:13:36.421Z,3.40
2019-05-13T08:16:07.781Z,1.90
2019-05-13T08:18:38.775Z,3.05
2019-05-13T08:21:12.250Z,2.95
2019-05-13T08:23:42.569Z,2.55
2019-05-13T08:26:13.657Z,1.72
2019-05-13T08:28:56.982Z,2.20
2019-05-13T08:31:17.379Z,1.65
2019-05-13T08:33:48.360Z,1.60
2019-05-13T08:36:19.480Z,2.95
2019-05-13T08:38:51.967Z,4.75
2019-05-13T08:41:23.676Z,2.55
2019-05-13T08:43:56.151Z,2.40
2019-05-13T08:46:28.780Z,4.28
2019-05-13T08:49:03.483Z,1.85
2019-05-13T08:51:35.660Z,3.42
2019-05-13T08:54:11.509Z,2.67
2019-05-13T08:56:42.695Z,3.22
2019-05-13T08:59:13.695Z,2.58
2019-05-13T09:01:44.735Z,4.45
2019-05-13T09:04:15.756Z,2.02
2019-05-13T09:06:46.785Z,3.30
2019-05-13T09:09:17.805Z,2.87
2019-05-13T09:11:51.576Z,2.62
2019-05-13T09:14:23.165Z,1.45
2019-05-13T09:16:54.243Z,2.00
2019-05-13T09:19:25.246Z,2.05
2019-05-13T09:21:56.305Z,1.60
2019-05-13T09:24:36.002Z,3.02
2019-05-13T09:27:01.909Z,2.52
2019-05-13T09:29:32.998Z,2.45
2019-05-13T09:32:04.306Z,3.87
2019-05-13T09:34:35.372Z,3.20
2019-05-13T09:37:07.996Z,4.10
2019-05-13T09:39:41.277Z,3.20
2019-05-13T09:42:13.413Z,2.75
2019-05-13T09:44:46.007Z,1.92
2019-05-13T09:47:18.644Z,5.33
2019-05-13T09:49:49.647Z,2.70
2019-05-13T09:52:22.578Z,1.70
2019-05-13T09:54:53.437Z,2.30
2019-05-13T09:57:25.365Z,1.80
2019-05-13T09:59:56.330Z,2.05
2019-05-13T10:02:27.713Z,2.08
2019-05-13T10:04:58.889Z,1.70
2019-05-13T10:07:31.876Z,2.30
2019-05-13T10:10:03.059Z,2.87
2019-05-13T10:12:34.952Z,1.52
2019-05-13T10:15:08.819Z,2.42
2019-05-13T10:17:42.814Z,1.55
2019-05-13T10:20:16.255Z,1.62
2019-05-13T10:22:47.355Z,3.33
2019-05-13T10:25:22.264Z,2.37
2019-05-13T10:27:52.937Z,2.60
2019-05-13T10:30:25.607Z,2.52
2019-05-13T10:33:03.902Z,3.05
2019-05-13T10:35:38.984Z,2.98
2019-05-13T10:38:13.987Z,2.52
2019-05-13T10:43:43.235Z,6.03
2019-05-13T10:46:13.239Z,3.33
2019-05-13T10:48:44.373Z,3.33
2019-05-13T10:51:22.372Z,1.60
2019-05-13T10:53:59.013Z,3.02
2019-05-13T10:56:28.556Z,2.85
2019-05-13T10:59:03.345Z,1.98
2019-05-13T11:01:42.629Z,6.15
2019-05-13T11:04:13.965Z,2.52
2019-05-13T11:06:48.248Z,2.85
2019-05-13T11:09:21.844Z,3.52
2019-05-13T11:11:52.835Z,2.17
2019-05-13T11:14:32.256Z,2.25
2019-05-13T11:17:06.448Z,2.62
2019-05-13T11:19:49.497Z,2.02
2019-05-13T11:22:27.124Z,2.67
2019-05-13T11:24:58.662Z,2.72
2019-05-13T11:27:47.233Z,2.33
2019-05-13T11:30:24.138Z,2.47
2019-05-13T11:32:55.870Z,2.60
2019-05-13T11:35:28.815Z,4.65
2019-05-13T11:38:01.711Z,2.02
2019-05-13T11:40:33.595Z,1.50
2019-05-13T11:43:04.688Z,3.33
2019-05-13T11:45:43.393Z,3.42
2019-05-13T11:48:14.429Z,2.85
2019-05-13T11:50:49.800Z,2.30
2019-05-13T11:53:37.165Z,2.80
2019-05-13T11:55:52.495Z,3.72
2019-05-13T11:58:25.106Z,3.05
2019-05-13T12:01:02.539Z,5.05
2019-05-13T12:03:34.385Z,5.22
2019-05-13T12:06:08.301Z,2.27
2019-05-13T12:08:52.123Z,3.50
2019-05-13T12:11:22.381Z,2.15
2019-05-13T12:13:56.429Z,3.05
2019-05-13T12:16:29.363Z,2.65
2019-05-13T12:19:03.835Z,3.20
2019-05-13T12:21:41.656Z,1.67
2019-05-13T12:24:11.686Z,1.60
2019-05-13T12:56:27.024Z,2.27
2019-05-13T12:58:58.098Z,2.00
2019-05-13T13:01:32.742Z,2.92
2019-05-13T13:04:12.740Z,2.50
2019-05-13T13:10:41.752Z,3.50
2019-05-13T13:13:12.713Z,5.72
2019-05-13T13:19:41.809Z,2.40
2019-05-13T13:22:16.025Z,3.05
2019-05-13T13:24:51.583Z,3.27
2019-05-13T13:27:37.057Z,2.55
2019-05-13T13:30:02.851Z,2.87
2019-05-13T13:32:27.344Z,3.00
2019-05-13T13:35:03.423Z,3.08
2019-05-13T13:37:34.951Z,3.00
2019-05-13T13:40:08.828Z,2.60
2019-05-13T13:42:43.502Z,2.42
2019-05-13T13:45:19.089Z,2.08
2019-05-13T13:48:02.356Z,4.25
2019-05-13T13:50:25.144Z,3.15
2019-05-13T13:52:57.841Z,2.50
2019-05-13T13:55:32.174Z,2.37
2019-05-13T13:58:14.076Z,5.42
2019-05-13T14:00:47.243Z,5.40
2019-05-13T14:03:18.244Z,3.08
2019-05-13T14:05:53.686Z,2.92
2019-05-13T14:08:24.840Z,3.15
2019-05-13T14:10:55.998Z,2.10
2019-05-13T14:13:27.141Z,3.72
2019-05-13T14:15:58.304Z,2.10
2019-05-13T14:18:32.189Z,2.25
2019-05-13T14:21:06.038Z,3.20
2019-05-13T14:23:37.925Z,3.50
2019-05-13T14:26:13.811Z,6.92
2019-05-13T14:28:47.987Z,4.55
2019-05-13T14:31:22.989Z,3.55
2019-05-13T14:33:54.052Z,14.13
2019-05-13T14:36:29.835Z,3.80
2019-05-13T14:39:02.810Z,3.22
2019-05-13T14:41:35.148Z,11.07
2019-05-13T14:45:20.447Z,5.30
2019-05-13T14:51:12.260Z,9.87
2019-05-13T14:53:46.186Z,6.67
2019-05-13T15:18:56.317Z,8.30
2019-05-13T15:21:31.905Z,3.00
2019-05-13T15:24:06.369Z,3.27
2019-05-13T15:26:39.029Z,3.50
2019-05-13T15:29:13.056Z,3.67
2019-05-13T15:31:46.145Z,3.37
2019-05-13T15:34:17.284Z,2.00
2019-05-13T15:36:48.401Z,2.20
2019-05-13T15:39:19.759Z,3.53
2019-05-13T15:41:52.379Z,5.28
2019-05-13T15:44:23.961Z,5.73
2019-05-13T15:46:59.408Z,11.40
2019-05-13T15:49:31.704Z,14.28
2019-05-13T15:52:02.267Z,6.33
2019-05-13T15:54:38.629Z,3.30
2019-05-13T15:57:11.919Z,3.50
2019-05-13T15:59:44.244Z,2.72
2019-05-13T16:02:15.571Z,3.30
2019-05-13T16:04:57.781Z,4.40
2019-05-13T16:07:23.989Z,2.60
2019-05-13T16:09:58.683Z,3.73
2019-05-13T16:12:31.978Z,5.57
2019-05-13T16:15:03.270Z,3.20
2019-05-13T16:17:41.311Z,6.53
2019-05-13T16:20:08.153Z,3.33
2019-05-13T16:22:42.024Z,3.20
2019-05-13T16:25:16.126Z,12.10
2019-05-13T16:27:47.242Z,7.03
2019-05-13T16:30:18.579Z,3.67
2019-05-13T16:32:51.906Z,3.37
2019-05-13T16:35:22.437Z,3.47
2019-05-13T16:37:55.358Z,10.17
2019-05-13T16:40:26.479Z,9.30
2019-05-13T16:42:58.568Z,13.50
2019-05-13T16:45:31.576Z,18.13
2019-05-13T16:48:04.171Z,12.03
2019-05-13T16:50:35.465Z,4.33
2019-05-13T16:53:06.568Z,5.30
2019-05-13T16:55:38.515Z,8.00
2019-05-13T16:58:09.620Z,8.10
2019-05-13T17:00:43.857Z,5.97
2019-05-13T17:03:14.928Z,7.20
2019-05-13T17:05:47.607Z,9.50
2019-05-13T17:08:18.658Z,6.00
2019-05-13T17:10:51.543Z,4.90
2019-05-13T17:13:24.183Z,9.63
2019-05-13T17:15:55.299Z,42.07
2019-05-13T17:18:26.362Z,4.13
2019-05-13T17:20:57.478Z,8.10
2019-05-13T17:23:31.728Z,6.47
2019-05-13T17:26:03.824Z,4.67
2019-05-13T17:28:34.924Z,5.47
2019-05-13T17:31:06.104Z,6.10
2019-05-13T17:33:38.797Z,8.47
2019-05-13T17:36:12.121Z,7.27
2019-05-13T17:38:44.072Z,4.67
2019-05-13T17:41:15.281Z,12.93
2019-05-13T17:43:52.614Z,5.60
2019-05-13T17:46:23.904Z,10.67
2019-05-13T17:48:57.000Z,12.33
2019-05-13T17:51:27.841Z,5.13
2019-05-13T17:54:01.466Z,16.40
2019-05-13T17:56:33.501Z,11.20
2019-05-13T17:59:04.525Z,5.27
2019-05-13T18:01:37.305Z,6.63
2019-05-13T18:04:12.029Z,6.00
2019-05-13T18:06:44.831Z,55.27
2019-05-13T18:09:17.462Z,169.63
2019-05-13T18:11:49.497Z,65.60
2019-05-13T18:14:22.111Z,57.87
2019-05-13T18:16:54.701Z,20.53
2019-05-13T18:19:25.958Z,9.03
2019-05-13T18:21:57.118Z,12.63
2019-05-13T18:24:31.840Z,14.50
2019-05-13T18:27:02.565Z,8.67
2019-05-13T18:29:33.680Z,10.73
2019-05-13T18:32:07.949Z,5.57
2019-05-13T18:34:41.681Z,6.67
2019-05-13T18:37:12.075Z,5.33
2019-05-13T18:39:43.165Z,7.10
2019-05-13T18:42:15.074Z,5.93
2019-05-13T18:44:46.136Z,4.57
2019-05-13T18:47:17.190Z,5.27
2019-05-13T18:49:51.329Z,6.03
2019-05-13T18:52:22.498Z,6.63
2019-05-13T18:54:55.152Z,7.10
2019-05-13T18:57:27.081Z,6.40
2019-05-13T18:59:58.140Z,5.33
2019-05-13T19:02:31.880Z,4.90
2019-05-13T19:05:03.171Z,4.50
2019-05-13T19:07:35.063Z,4.43
2019-05-13T19:10:06.698Z,4.30
2019-05-13T19:12:42.022Z,4.33
2019-05-13T19:15:13.801Z,5.20
2019-05-13T19:17:46.595Z,3.87
2019-05-13T19:20:17.683Z,3.93
2019-05-13T19:22:51.704Z,5.90
2019-05-13T19:25:24.155Z,6.77
2019-05-13T19:27:56.220Z,6.23
2019-05-13T19:30:27.513Z,5.73
2019-05-13T19:33:01.222Z,7.87
2019-05-13T19:35:32.300Z,10.20
2019-05-13T19:38:05.056Z,7.00
2019-05-13T19:40:36.287Z,6.97
2019-05-13T19:43:11.369Z,5.53
2019-05-13T19:45:41.829Z,6.33
2019-05-13T19:48:13.845Z,4.73
2019-05-13T19:50:44.941Z,4.13
2019-05-13T19:53:16.310Z,7.40
2019-05-13T19:55:47.448Z,5.67
2019-05-13T19:58:21.605Z,6.47
2019-05-13T20:00:52.905Z,7.00
2019-05-13T20:03:24.139Z,7.97
2019-05-13T20:05:55.314Z,6.23
2019-05-13T20:08:26.525Z,8.37
2019-05-13T20:10:57.935Z,10.40
2019-05-13T20:13:29.081Z,9.83
2019-05-13T20:16:01.466Z,6.60
2019-05-13T20:18:32.738Z,5.50
2019-05-13T20:21:03.890Z,5.50
2019-05-13T20:23:35.106Z,6.40
2019-05-13T20:26:06.239Z,4.90
2019-05-13T20:28:38.403Z,5.33
2019-05-13T20:31:12.642Z,5.70
2019-05-13T20:33:43.835Z,5.13
2019-05-13T20:36:14.881Z,6.93
2019-05-13T20:38:46.005Z,6.27
2019-05-13T20:41:17.063Z,5.60
2019-05-13T20:43:48.985Z,4.27
2019-05-13T20:46:20.061Z,4.33
2019-05-13T20:48:51.927Z,4.53
2019-05-13T20:51:24.748Z,5.73
2019-05-13T20:53:55.976Z,6.00
2019-05-13T20:56:27.032Z,4.33
2019-05-13T20:58:59.016Z,6.87
2019-05-13T21:01:30.178Z,5.90
2019-05-13T21:04:02.833Z,9.87
2019-05-13T21:06:33.944Z,6.67
2019-05-13T21:09:06.143Z,5.63
2019-05-13T21:11:37.231Z,8.73
2019-05-13T21:14:09.446Z,3.70
2019-05-13T21:16:44.104Z,4.43
2019-05-13T21:19:15.198Z,6.57
2019-05-13T21:21:46.175Z,7.07
2019-05-13T21:24:21.205Z,5.23
2019-05-13T21:26:51.801Z,7.03
2019-05-13T21:29:23.752Z,7.47
2019-05-13T21:31:54.771Z,8.07
2019-05-13T21:34:25.795Z,8.57
2019-05-13T21:36:56.901Z,5.60
2019-05-13T21:39:28.291Z,4.70
2019-05-13T21:41:59.304Z,5.93
2019-05-13T21:44:32.657Z,7.30
2019-05-13T21:47:06.151Z,5.73
2019-05-13T21:49:37.262Z,5.60
2019-05-13T21:52:08.345Z,5.20
2019-05-13T21:54:42.020Z,6.87
2019-05-13T21:57:12.243Z,4.30
2019-05-13T21:59:45.224Z,3.33
2019-05-13T22:02:16.925Z,5.77
2019-05-13T22:04:48.047Z,5.40
2019-05-13T22:07:19.096Z,4.03
2019-05-13T22:09:53.158Z,4.10
2019-05-13T22:12:24.214Z,6.47
2019-05-13T22:14:56.248Z,4.87
2019-05-13T22:17:27.331Z,4.93
2019-05-13T22:19:58.435Z,5.10
2019-05-13T22:22:32.689Z,8.20
2019-05-13T22:25:04.197Z,6.70
2019-05-13T22:27:35.237Z,5.53
2019-05-13T22:30:08.531Z,8.10
2019-05-13T22:32:41.565Z,5.57
2019-05-13T22:35:12.739Z,5.00
2019-05-13T22:37:43.953Z,9.60
2019-05-13T22:40:15.233Z,8.03
2019-05-13T22:42:49.229Z,8.23
2019-05-13T22:45:21.922Z,7.30
2019-05-13T22:47:53.181Z,16.00
2019-05-13T22:50:24.272Z,11.20
2019-05-13T22:52:55.293Z,18.03
2019-05-13T22:55:26.433Z,18.97
2019-05-13T22:58:01.561Z,17.60
2019-05-13T23:00:34.231Z,19.33
2019-05-13T23:03:05.280Z,21.47
2019-05-13T23:05:36.425Z,26.20
2019-05-13T23:08:07.515Z,22.93
2019-05-13T23:10:39.378Z,17.83
2019-05-13T23:13:10.485Z,14.23
2019-05-13T23:15:41.594Z,7.50
2019-05-13T23:18:12.627Z,6.30
2019-05-13T23:20:43.785Z,6.33
2019-05-13T23:23:15.641Z,5.83
2019-05-13T23:25:46.695Z,6.20
2019-05-13T23:28:17.735Z,5.67
2019-05-13T23:30:50.999Z,6.47
2019-05-13T23:33:22.081Z,6.03
2019-05-13T23:35:53.204Z,6.97
2019-05-13T23:38:24.279Z,7.63
2019-05-13T23:40:55.393Z,7.57
2019-05-13T23:43:26.452Z,8.60
2019-05-13T23:46:01.036Z,6.93
2019-05-13T23:48:33.183Z,7.83
2019-05-13T23:51:05.794Z,6.93
2019-05-13T23:53:36.909Z,7.63
2019-05-13T23:56:08.003Z,8.87
2019-05-13T23:58:41.222Z,3.87
